Searchlight, Nevada
Current Conditions -  °F | °C
As of 5:15 PM on Tuesday 21 Oct 2014 (Local Time) from KIFP Reporting Station
Clear Clear  
Wind Chill: 91°   Ceiling: Unl
Heat Index: 91°   Visibility: 10mi
Dew Point: 41°   Wind: 7mph
Humidity: 17%   Direction: 200°SSW
Pressure: 29.74"   Gusts: NA
Location:  35.46°N, 114.92°W
Report Text: KIFP 220015Z AUTO 20006KT 10SM CLR 33/05 A2974 RMK AO2 PWINO
Loading
Personal Weather Stations






























Interactive Weather Map
Tropical Storm Tracking
New forecast layout! Learn more

10-Day Weather Forecast

Advertisements
Track Severe Weather on mobile